Northorpe, United Kingdom
Current Conditions -  °F | °C
As of 4:50 PM on Thursday 27 Nov 2014 (Local Time) from EGXP Reporting Station
Broken Clouds Broken Clouds  
Wind Chill: 45°   Ceiling: 600
Heat Index: 48°   Visibility: 6mi
Dew Point: 48°   Wind: 8mph
Humidity: 100%   Direction: 170°S
Pressure: 29.59"   Gusts: NA
Location:  53.47°N, 0.65°W
Report Text: EGXP 271650Z AUTO 17007KT 9999 // BKN006/// SCT028/// 09/09 Q1002
Loading
Personal Weather Stations






























Interactive Weather Map New forecast layout! Learn more

10-Day Weather Forecast

Advertisements
Track Severe Weather on mobile